sensor_id;sensor_type;location;lat;lon;timestamp;P1;durP1;ratioP1;P2;durP2;ratioP2
19929;SDS011;10127;47.780;9.606;2023-05-09T00:01:09;16.95;;;11.98;;
19929;SDS011;10127;47.780;9.606;2023-05-09T00:03:37;16.83;;;12.80;;
19929;SDS011;10127;47.780;9.606;2023-05-09T00:06:03;26.85;;;14.57;;
19929;SDS011;10127;47.780;9.606;2023-05-09T00:08:30;15.75;;;12.23;;
19929;SDS011;10127;47.780;9.606;2023-05-09T00:10:56;17.77;;;12.93;;
19929;SDS011;10127;47.780;9.606;2023-05-09T00:13:22;17.67;;;12.75;;
19929;SDS011;10127;47.780;9.606;2023-05-09T00:15:48;17.02;;;13.52;;
19929;SDS011;10127;47.780;9.606;2023-05-09T00:18:14;16.77;;;12.57;;
19929;SDS011;10127;47.780;9.606;2023-05-09T00:20:41;18.33;;;13.32;;
19929;SDS011;10127;47.780;9.606;2023-05-09T00:23:08;19.20;;;13.20;;
19929;SDS011;10127;47.780;9.606;2023-05-09T00:25:33;18.95;;;13.82;;
19929;SDS011;10127;47.780;9.606;2023-05-09T00:27:59;22.88;;;14.38;;
19929;SDS011;10127;47.780;9.606;2023-05-09T00:30:25;17.27;;;13.60;;
19929;SDS011;10127;47.780;9.606;2023-05-09T00:32:50;35.72;;;15.02;;
19929;SDS011;10127;47.780;9.606;2023-05-09T00:35:16;23.17;;;13.60;;
19929;SDS011;10127;47.780;9.606;2023-05-09T00:37:41;21.98;;;13.85;;
19929;SDS011;10127;47.780;9.606;2023-05-09T00:40:07;21.98;;;13.77;;
19929;SDS011;10127;47.780;9.606;2023-05-09T00:42:33;20.05;;;12.85;;
19929;SDS011;10127;47.780;9.606;2023-05-09T00:44:59;24.85;;;14.27;;
19929;SDS011;10127;47.780;9.606;2023-05-09T00:47:26;21.65;;;13.77;;
19929;SDS011;10127;47.780;9.606;2023-05-09T00:49:52;24.58;;;13.65;;
19929;SDS011;10127;47.780;9.606;2023-05-09T00:52:18;24.95;;;14.32;;
19929;SDS011;10127;47.780;9.606;2023-05-09T00:54:47;25.27;;;12.68;;
19929;SDS011;10127;47.780;9.606;2023-05-09T00:57:14;24.90;;;13.15;;
19929;SDS011;10127;47.780;9.606;2023-05-09T00:59:40;18.85;;;13.38;;
19929;SDS011;10127;47.780;9.606;2023-05-09T01:02:06;24.27;;;12.75;;
19929;SDS011;10127;47.780;9.606;2023-05-09T01:04:31;20.45;;;12.70;;
19929;SDS011;10127;47.780;9.606;2023-05-09T01:10:08;24.65;;;13.13;;
19929;SDS011;10127;47.780;9.606;2023-05-09T01:12:58;17.95;;;12.57;;
19929;SDS011;10127;47.780;9.606;2023-05-09T01:18:29;17.00;;;12.65;;
19929;SDS011;10127;47.780;9.606;2023-05-09T01:21:03;20.05;;;13.40;;
19929;SDS011;10127;47.780;9.606;2023-05-09T01:26:38;20.33;;;14.07;;
19929;SDS011;10127;47.780;9.606;2023-05-09T01:32:18;21.42;;;13.43;;
19929;SDS011;10127;47.780;9.606;2023-05-09T01:34:49;19.08;;;13.00;;
19929;SDS011;10127;47.780;9.606;2023-05-09T01:37:17;16.88;;;12.95;;
19929;SDS011;10127;47.780;9.606;2023-05-09T01:39:46;17.30;;;13.23;;
19929;SDS011;10127;47.780;9.606;2023-05-09T01:42:23;19.77;;;14.38;;
19929;SDS011;10127;47.780;9.606;2023-05-09T01:44:51;19.40;;;12.82;;
19929;SDS011;10127;47.780;9.606;2023-05-09T01:47:18;18.05;;;13.02;;
19929;SDS011;10127;47.780;9.606;2023-05-09T01:49:45;18.85;;;12.88;;
19929;SDS011;10127;47.780;9.606;2023-05-09T01:52:13;16.58;;;12.82;;
19929;SDS011;10127;47.780;9.606;2023-05-09T01:54:47;17.73;;;12.93;;
19929;SDS011;10127;47.780;9.606;2023-05-09T01:57:15;15.68;;;12.13;;
19929;SDS011;10127;47.780;9.606;2023-05-09T01:59:43;16.20;;;11.85;;
19929;SDS011;10127;47.780;9.606;2023-05-09T02:02:09;16.42;;;12.15;;
19929;SDS011;10127;47.780;9.606;2023-05-09T02:04:36;17.17;;;12.05;;
19929;SDS011;10127;47.780;9.606;2023-05-09T02:07:03;16.63;;;11.65;;
19929;SDS011;10127;47.780;9.606;2023-05-09T02:09:30;19.33;;;12.43;;
19929;SDS011;10127;47.780;9.606;2023-05-09T02:11:56;15.57;;;11.55;;
19929;SDS011;10127;47.780;9.606;2023-05-09T02:14:21;26.77;;;12.77;;
19929;SDS011;10127;47.780;9.606;2023-05-09T02:16:47;21.42;;;14.40;;
19929;SDS011;10127;47.780;9.606;2023-05-09T02:19:12;22.90;;;13.60;;
19929;SDS011;10127;47.780;9.606;2023-05-09T02:21:38;18.27;;;14.13;;
19929;SDS011;10127;47.780;9.606;2023-05-09T02:24:04;18.50;;;14.73;;
19929;SDS011;10127;47.780;9.606;2023-05-09T02:26:30;20.98;;;14.77;;
19929;SDS011;10127;47.780;9.606;2023-05-09T02:28:55;22.35;;;15.55;;
19929;SDS011;10127;47.780;9.606;2023-05-09T02:31:23;22.20;;;15.05;;
19929;SDS011;10127;47.780;9.606;2023-05-09T02:33:51;21.15;;;14.75;;
19929;SDS011;10127;47.780;9.606;2023-05-09T02:36:18;24.60;;;15.90;;
19929;SDS011;10127;47.780;9.606;2023-05-09T02:38:46;20.98;;;15.40;;
19929;SDS011;10127;47.780;9.606;2023-05-09T02:41:18;20.67;;;15.77;;
19929;SDS011;10127;47.780;9.606;2023-05-09T02:43:43;22.35;;;14.88;;
19929;SDS011;10127;47.780;9.606;2023-05-09T02:46:09;19.52;;;15.05;;
19929;SDS011;10127;47.780;9.606;2023-05-09T02:48:35;17.77;;;14.20;;
19929;SDS011;10127;47.780;9.606;2023-05-09T03:11:39;19.35;;;12.95;;
19929;SDS011;10127;47.780;9.606;2023-05-09T03:14:04;18.05;;;13.68;;
19929;SDS011;10127;47.780;9.606;2023-05-09T03:16:32;20.17;;;13.60;;
19929;SDS011;10127;47.780;9.606;2023-05-09T03:18:58;23.92;;;13.57;;
19929;SDS011;10127;47.780;9.606;2023-05-09T03:21:24;20.58;;;14.43;;
19929;SDS011;10127;47.780;9.606;2023-05-09T03:23:49;18.85;;;14.05;;
19929;SDS011;10127;47.780;9.606;2023-05-09T03:26:15;15.65;;;13.18;;
19929;SDS011;10127;47.780;9.606;2023-05-09T03:28:41;16.52;;;12.20;;
19929;SDS011;10127;47.780;9.606;2023-05-09T03:31:06;15.50;;;11.98;;
19929;SDS011;10127;47.780;9.606;2023-05-09T03:33:32;16.08;;;12.48;;
19929;SDS011;10127;47.780;9.606;2023-05-09T03:35:57;20.35;;;12.85;;
19929;SDS011;10127;47.780;9.606;2023-05-09T03:38:23;16.80;;;12.00;;
19929;SDS011;10127;47.780;9.606;2023-05-09T03:40:49;19.23;;;12.38;;
19929;SDS011;10127;47.780;9.606;2023-05-09T03:43:15;17.27;;;13.13;;
19929;SDS011;10127;47.780;9.606;2023-05-09T03:45:41;17.23;;;13.00;;
19929;SDS011;10127;47.780;9.606;2023-05-09T03:48:07;15.35;;;12.18;;
19929;SDS011;10127;47.780;9.606;2023-05-09T03:50:34;16.35;;;11.60;;
19929;SDS011;10127;47.780;9.606;2023-05-09T03:52:59;18.73;;;12.30;;
19929;SDS011;10127;47.780;9.606;2023-05-09T03:55:25;22.92;;;12.13;;
19929;SDS011;10127;47.780;9.606;2023-05-09T03:57:51;19.38;;;12.68;;
19929;SDS011;10127;47.780;9.606;2023-05-09T04:00:17;19.10;;;11.80;;
19929;SDS011;10127;47.780;9.606;2023-05-09T04:02:43;18.00;;;11.77;;
19929;SDS011;10127;47.780;9.606;2023-05-09T04:05:09;21.58;;;11.23;;
19929;SDS011;10127;47.780;9.606;2023-05-09T04:07:34;17.33;;;12.15;;
19929;SDS011;10127;47.780;9.606;2023-05-09T04:10:00;17.00;;;11.48;;
19929;SDS011;10127;47.780;9.606;2023-05-09T04:12:25;18.92;;;12.25;;
19929;SDS011;10127;47.780;9.606;2023-05-09T04:14:51;17.05;;;10.90;;
19929;SDS011;10127;47.780;9.606;2023-05-09T04:17:17;16.73;;;11.70;;
19929;SDS011;10127;47.780;9.606;2023-05-09T04:19:42;16.60;;;11.23;;
19929;SDS011;10127;47.780;9.606;2023-05-09T04:22:08;19.60;;;12.43;;
19929;SDS011;10127;47.780;9.606;2023-05-09T04:24:33;18.00;;;12.88;;
19929;SDS011;10127;47.780;9.606;2023-05-09T04:26:59;19.58;;;12.85;;
19929;SDS011;10127;47.780;9.606;2023-05-09T04:29:26;14.43;;;11.25;;
19929;SDS011;10127;47.780;9.606;2023-05-09T04:31:52;15.27;;;11.57;;
19929;SDS011;10127;47.780;9.606;2023-05-09T04:34:17;15.00;;;11.18;;
19929;SDS011;10127;47.780;9.606;2023-05-09T04:36:43;21.67;;;11.32;;
19929;SDS011;10127;47.780;9.606;2023-05-09T04:39:08;17.05;;;12.82;;
19929;SDS011;10127;47.780;9.606;2023-05-09T04:41:34;18.75;;;13.63;;
19929;SDS011;10127;47.780;9.606;2023-05-09T04:44:00;18.90;;;13.38;;
19929;SDS011;10127;47.780;9.606;2023-05-09T04:46:26;23.50;;;14.00;;
19929;SDS011;10127;47.780;9.606;2023-05-09T04:48:52;25.17;;;17.40;;
19929;SDS011;10127;47.780;9.606;2023-05-09T04:51:17;24.98;;;15.25;;
19929;SDS011;10127;47.780;9.606;2023-05-09T04:53:43;60.20;;;35.17;;
19929;SDS011;10127;47.780;9.606;2023-05-09T04:56:09;24.48;;;16.92;;
19929;SDS011;10127;47.780;9.606;2023-05-09T04:58:35;20.48;;;14.32;;
19929;SDS011;10127;47.780;9.606;2023-05-09T05:01:03;31.02;;;20.00;;
19929;SDS011;10127;47.780;9.606;2023-05-09T05:03:30;20.38;;;14.57;;
19929;SDS011;10127;47.780;9.606;2023-05-09T05:05:56;22.77;;;14.32;;
19929;SDS011;10127;47.780;9.606;2023-05-09T05:08:22;21.58;;;13.77;;
19929;SDS011;10127;47.780;9.606;2023-05-09T05:10:47;20.75;;;14.63;;
19929;SDS011;10127;47.780;9.606;2023-05-09T05:13:13;22.88;;;14.90;;
19929;SDS011;10127;47.780;9.606;2023-05-09T05:15:39;21.10;;;13.40;;
19929;SDS011;10127;47.780;9.606;2023-05-09T05:18:05;21.40;;;14.40;;
19929;SDS011;10127;47.780;9.606;2023-05-09T05:20:31;20.08;;;14.43;;
19929;SDS011;10127;47.780;9.606;2023-05-09T05:22:56;26.05;;;14.05;;
19929;SDS011;10127;47.780;9.606;2023-05-09T05:25:22;27.10;;;19.13;;
19929;SDS011;10127;47.780;9.606;2023-05-09T05:27:51;23.25;;;15.20;;
19929;SDS011;10127;47.780;9.606;2023-05-09T05:30:17;31.38;;;19.45;;
19929;SDS011;10127;47.780;9.606;2023-05-09T05:32:42;63.63;;;42.15;;
19929;SDS011;10127;47.780;9.606;2023-05-09T05:35:08;39.90;;;29.30;;
19929;SDS011;10127;47.780;9.606;2023-05-09T05:37:36;21.98;;;15.05;;
19929;SDS011;10127;47.780;9.606;2023-05-09T05:40:05;22.55;;;16.33;;
19929;SDS011;10127;47.780;9.606;2023-05-09T05:42:31;20.55;;;15.18;;
19929;SDS011;10127;47.780;9.606;2023-05-09T05:44:57;22.20;;;15.30;;
19929;SDS011;10127;47.780;9.606;2023-05-09T05:47:28;19.17;;;15.95;;
19929;SDS011;10127;47.780;9.606;2023-05-09T05:50:00;26.95;;;16.35;;
19929;SDS011;10127;47.780;9.606;2023-05-09T05:52:27;20.85;;;15.90;;
19929;SDS011;10127;47.780;9.606;2023-05-09T05:54:53;22.08;;;15.82;;
19929;SDS011;10127;47.780;9.606;2023-05-09T05:57:19;20.90;;;15.75;;
19929;SDS011;10127;47.780;9.606;2023-05-09T05:59:48;24.00;;;16.08;;
19929;SDS011;10127;47.780;9.606;2023-05-09T06:02:17;32.15;;;17.55;;
19929;SDS011;10127;47.780;9.606;2023-05-09T06:04:43;29.20;;;19.42;;
19929;SDS011;10127;47.780;9.606;2023-05-09T06:07:09;34.83;;;20.17;;
19929;SDS011;10127;47.780;9.606;2023-05-09T06:09:36;88.97;;;51.72;;
19929;SDS011;10127;47.780;9.606;2023-05-09T06:12:02;73.13;;;36.13;;
19929;SDS011;10127;47.780;9.606;2023-05-09T06:14:28;28.35;;;18.35;;
19929;SDS011;10127;47.780;9.606;2023-05-09T06:16:53;29.73;;;18.42;;
19929;SDS011;10127;47.780;9.606;2023-05-09T06:19:19;41.45;;;23.98;;
19929;SDS011;10127;47.780;9.606;2023-05-09T06:21:45;37.83;;;24.48;;
19929;SDS011;10127;47.780;9.606;2023-05-09T06:24:10;51.22;;;29.27;;
19929;SDS011;10127;47.780;9.606;2023-05-09T06:26:36;94.30;;;49.70;;
19929;SDS011;10127;47.780;9.606;2023-05-09T06:29:02;33.90;;;20.98;;
19929;SDS011;10127;47.780;9.606;2023-05-09T06:31:29;28.40;;;19.90;;
19929;SDS011;10127;47.780;9.606;2023-05-09T06:33:55;31.83;;;20.13;;
19929;SDS011;10127;47.780;9.606;2023-05-09T06:36:21;32.97;;;19.50;;
19929;SDS011;10127;47.780;9.606;2023-05-09T06:38:46;30.13;;;18.85;;
19929;SDS011;10127;47.780;9.606;2023-05-09T06:41:12;28.10;;;18.58;;
19929;SDS011;10127;47.780;9.606;2023-05-09T06:43:37;30.85;;;17.15;;
19929;SDS011;10127;47.780;9.606;2023-05-09T06:46:03;35.70;;;21.98;;
19929;SDS011;10127;47.780;9.606;2023-05-09T06:48:29;38.05;;;17.95;;
19929;SDS011;10127;47.780;9.606;2023-05-09T06:50:54;25.40;;;16.15;;
19929;SDS011;10127;47.780;9.606;2023-05-09T06:53:20;26.48;;;15.70;;
19929;SDS011;10127;47.780;9.606;2023-05-09T06:55:45;32.90;;;19.00;;
19929;SDS011;10127;47.780;9.606;2023-05-09T06:58:11;22.00;;;15.50;;
19929;SDS011;10127;47.780;9.606;2023-05-09T07:00:37;26.00;;;15.18;;
19929;SDS011;10127;47.780;9.606;2023-05-09T07:03:03;41.55;;;27.65;;
19929;SDS011;10127;47.780;9.606;2023-05-09T07:05:31;26.60;;;15.63;;
19929;SDS011;10127;47.780;9.606;2023-05-09T07:07:57;35.13;;;20.42;;
19929;SDS011;10127;47.780;9.606;2023-05-09T07:10:22;26.88;;;16.20;;
19929;SDS011;10127;47.780;9.606;2023-05-09T07:12:48;26.25;;;17.42;;
19929;SDS011;10127;47.780;9.606;2023-05-09T07:15:14;32.22;;;17.92;;
19929;SDS011;10127;47.780;9.606;2023-05-09T07:17:40;41.35;;;18.77;;
19929;SDS011;10127;47.780;9.606;2023-05-09T07:20:06;80.53;;;19.95;;
19929;SDS011;10127;47.780;9.606;2023-05-09T07:22:32;25.38;;;15.27;;
19929;SDS011;10127;47.780;9.606;2023-05-09T07:24:58;31.95;;;18.83;;
19929;SDS011;10127;47.780;9.606;2023-05-09T07:27:23;32.40;;;16.45;;
19929;SDS011;10127;47.780;9.606;2023-05-09T07:29:49;23.88;;;17.13;;
19929;SDS011;10127;47.780;9.606;2023-05-09T07:32:16;29.27;;;16.25;;
19929;SDS011;10127;47.780;9.606;2023-05-09T07:34:42;26.27;;;17.48;;
19929;SDS011;10127;47.780;9.606;2023-05-09T07:37:08;21.27;;;15.93;;
19929;SDS011;10127;47.780;9.606;2023-05-09T07:39:34;29.73;;;19.67;;
19929;SDS011;10127;47.780;9.606;2023-05-09T07:41:59;27.08;;;15.63;;
19929;SDS011;10127;47.780;9.606;2023-05-09T07:44:25;21.25;;;14.95;;
19929;SDS011;10127;47.780;9.606;2023-05-09T07:46:50;21.45;;;14.23;;
19929;SDS011;10127;47.780;9.606;2023-05-09T07:49:17;44.17;;;25.98;;
19929;SDS011;10127;47.780;9.606;2023-05-09T07:51:43;54.13;;;36.10;;
19929;SDS011;10127;47.780;9.606;2023-05-09T07:54:08;24.35;;;16.13;;
19929;SDS011;10127;47.780;9.606;2023-05-09T07:56:34;25.73;;;14.32;;
19929;SDS011;10127;47.780;9.606;2023-05-09T07:58:59;21.83;;;13.32;;
19929;SDS011;10127;47.780;9.606;2023-05-09T08:01:27;24.42;;;14.65;;
19929;SDS011;10127;47.780;9.606;2023-05-09T08:03:52;18.15;;;12.73;;
19929;SDS011;10127;47.780;9.606;2023-05-09T08:06:18;17.83;;;12.13;;
19929;SDS011;10127;47.780;9.606;2023-05-09T08:08:44;19.23;;;12.35;;
19929;SDS011;10127;47.780;9.606;2023-05-09T08:11:09;15.23;;;11.98;;
19929;SDS011;10127;47.780;9.606;2023-05-09T08:13:35;16.85;;;11.65;;
19929;SDS011;10127;47.780;9.606;2023-05-09T08:16:01;18.52;;;12.15;;
19929;SDS011;10127;47.780;9.606;2023-05-09T08:18:26;18.85;;;12.10;;
19929;SDS011;10127;47.780;9.606;2023-05-09T08:20:53;21.98;;;13.95;;
19929;SDS011;10127;47.780;9.606;2023-05-09T08:23:18;20.63;;;14.00;;
19929;SDS011;10127;47.780;9.606;2023-05-09T08:25:44;24.25;;;14.77;;
19929;SDS011;10127;47.780;9.606;2023-05-09T08:28:17;24.85;;;14.32;;
19929;SDS011;10127;47.780;9.606;2023-05-09T08:30:42;20.80;;;14.32;;
19929;SDS011;10127;47.780;9.606;2023-05-09T08:33:08;20.23;;;12.60;;
19929;SDS011;10127;47.780;9.606;2023-05-09T08:35:34;16.55;;;12.18;;
19929;SDS011;10127;47.780;9.606;2023-05-09T08:37:59;15.52;;;11.95;;
19929;SDS011;10127;47.780;9.606;2023-05-09T08:40:25;18.23;;;12.80;;
19929;SDS011;10127;47.780;9.606;2023-05-09T08:42:51;19.57;;;12.23;;
19929;SDS011;10127;47.780;9.606;2023-05-09T08:45:21;17.25;;;10.23;;
19929;SDS011;10127;47.780;9.606;2023-05-09T08:47:58;13.63;;;9.43;;
19929;SDS011;10127;47.780;9.606;2023-05-09T08:50:25;12.18;;;8.18;;
19929;SDS011;10127;47.780;9.606;2023-05-09T08:52:50;11.43;;;7.53;;
19929;SDS011;10127;47.780;9.606;2023-05-09T08:55:17;11.05;;;7.95;;
19929;SDS011;10127;47.780;9.606;2023-05-09T08:57:43;12.18;;;7.93;;
19929;SDS011;10127;47.780;9.606;2023-05-09T09:00:09;10.93;;;6.90;;
19929;SDS011;10127;47.780;9.606;2023-05-09T09:02:39;33.00;;;21.88;;
19929;SDS011;10127;47.780;9.606;2023-05-09T09:05:05;34.00;;;22.02;;
19929;SDS011;10127;47.780;9.606;2023-05-09T09:07:32;10.27;;;6.88;;
19929;SDS011;10127;47.780;9.606;2023-05-09T09:10:00;11.07;;;8.40;;
19929;SDS011;10127;47.780;9.606;2023-05-09T09:12:28;17.50;;;11.70;;
19929;SDS011;10127;47.780;9.606;2023-05-09T09:14:53;11.05;;;6.22;;
19929;SDS011;10127;47.780;9.606;2023-05-09T09:17:22;7.88;;;5.50;;
19929;SDS011;10127;47.780;9.606;2023-05-09T09:19:52;7.50;;;5.72;;
19929;SDS011;10127;47.780;9.606;2023-05-09T09:22:22;9.00;;;7.03;;
19929;SDS011;10127;47.780;9.606;2023-05-09T09:24:49;8.95;;;5.78;;
19929;SDS011;10127;47.780;9.606;2023-05-09T09:27:15;6.80;;;5.38;;
19929;SDS011;10127;47.780;9.606;2023-05-09T09:29:40;11.18;;;7.47;;
19929;SDS011;10127;47.780;9.606;2023-05-09T09:32:06;8.90;;;6.97;;
19929;SDS011;10127;47.780;9.606;2023-05-09T09:34:32;11.05;;;8.40;;
19929;SDS011;10127;47.780;9.606;2023-05-09T09:36:58;8.85;;;7.63;;
19929;SDS011;10127;47.780;9.606;2023-05-09T09:39:23;8.35;;;6.55;;
19929;SDS011;10127;47.780;9.606;2023-05-09T09:41:49;9.95;;;7.95;;
19929;SDS011;10127;47.780;9.606;2023-05-09T09:44:16;17.45;;;10.20;;
19929;SDS011;10127;47.780;9.606;2023-05-09T09:46:47;8.60;;;6.80;;
19929;SDS011;10127;47.780;9.606;2023-05-09T09:49:24;7.40;;;5.80;;
19929;SDS011;10127;47.780;9.606;2023-05-09T09:54:27;7.65;;;6.05;;
19929;SDS011;10127;47.780;9.606;2023-05-09T09:56:53;11.95;;;9.82;;
19929;SDS011;10127;47.780;9.606;2023-05-09T09:59:21;10.10;;;5.22;;
19929;SDS011;10127;47.780;9.606;2023-05-09T10:04:31;5.07;;;3.55;;
19929;SDS011;10127;47.780;9.606;2023-05-09T10:07:06;9.48;;;4.28;;
19929;SDS011;10127;47.780;9.606;2023-05-09T10:09:34;12.23;;;3.95;;
19929;SDS011;10127;47.780;9.606;2023-05-09T10:12:04;9.30;;;3.38;;
19929;SDS011;10127;47.780;9.606;2023-05-09T10:14:32;6.25;;;3.35;;
19929;SDS011;10127;47.780;9.606;2023-05-09T10:16:59;11.38;;;3.72;;
19929;SDS011;10127;47.780;9.606;2023-05-09T10:19:26;4.90;;;3.10;;
19929;SDS011;10127;47.780;9.606;2023-05-09T10:21:54;7.05;;;4.40;;
19929;SDS011;10127;47.780;9.606;2023-05-09T10:24:25;4.05;;;2.50;;
19929;SDS011;10127;47.780;9.606;2023-05-09T10:27:02;5.88;;;2.80;;
19929;SDS011;10127;47.780;9.606;2023-05-09T10:29:34;3.10;;;2.63;;
19929;SDS011;10127;47.780;9.606;2023-05-09T10:32:04;5.20;;;3.30;;
19929;SDS011;10127;47.780;9.606;2023-05-09T10:34:56;5.00;;;3.08;;
19929;SDS011;10127;47.780;9.606;2023-05-09T10:37:31;6.70;;;3.00;;
19929;SDS011;10127;47.780;9.606;2023-05-09T10:39:58;4.60;;;3.47;;
19929;SDS011;10127;47.780;9.606;2023-05-09T10:42:26;4.43;;;3.17;;
19929;SDS011;10127;47.780;9.606;2023-05-09T10:44:53;6.45;;;4.40;;
19929;SDS011;10127;47.780;9.606;2023-05-09T10:47:20;9.98;;;5.18;;
19929;SDS011;10127;47.780;9.606;2023-05-09T10:49:48;19.45;;;15.27;;
19929;SDS011;10127;47.780;9.606;2023-05-09T10:52:14;4.68;;;4.10;;
19929;SDS011;10127;47.780;9.606;2023-05-09T10:54:40;10.48;;;7.10;;
19929;SDS011;10127;47.780;9.606;2023-05-09T10:57:09;6.63;;;4.53;;
19929;SDS011;10127;47.780;9.606;2023-05-09T11:02:02;4.55;;;3.50;;
19929;SDS011;10127;47.780;9.606;2023-05-09T11:04:29;5.40;;;3.75;;
19929;SDS011;10127;47.780;9.606;2023-05-09T11:06:56;4.55;;;3.80;;
19929;SDS011;10127;47.780;9.606;2023-05-09T11:17:02;4.88;;;3.42;;
19929;SDS011;10127;47.780;9.606;2023-05-09T11:22:26;7.15;;;4.25;;
19929;SDS011;10127;47.780;9.606;2023-05-09T11:25:09;6.72;;;4.32;;
19929;SDS011;10127;47.780;9.606;2023-05-09T11:27:43;4.68;;;4.07;;
19929;SDS011;10127;47.780;9.606;2023-05-09T11:30:14;4.68;;;3.83;;
19929;SDS011;10127;47.780;9.606;2023-05-09T11:32:42;6.85;;;4.82;;
19929;SDS011;10127;47.780;9.606;2023-05-09T11:35:09;6.65;;;5.03;;
19929;SDS011;10127;47.780;9.606;2023-05-09T11:40:13;5.82;;;4.10;;
19929;SDS011;10127;47.780;9.606;2023-05-09T11:42:42;6.50;;;3.70;;
19929;SDS011;10127;47.780;9.606;2023-05-09T11:45:09;6.07;;;3.40;;
19929;SDS011;10127;47.780;9.606;2023-05-09T11:47:37;3.92;;;3.13;;
19929;SDS011;10127;47.780;9.606;2023-05-09T11:50:10;6.63;;;3.45;;
19929;SDS011;10127;47.780;9.606;2023-05-09T11:52:37;6.10;;;3.22;;
19929;SDS011;10127;47.780;9.606;2023-05-09T11:55:06;7.53;;;3.08;;
19929;SDS011;10127;47.780;9.606;2023-05-09T11:57:41;3.78;;;2.13;;
19929;SDS011;10127;47.780;9.606;2023-05-09T12:00:17;4.30;;;3.35;;
19929;SDS011;10127;47.780;9.606;2023-05-09T12:02:45;5.97;;;3.40;;
19929;SDS011;10127;47.780;9.606;2023-05-09T12:05:14;3.58;;;2.95;;
19929;SDS011;10127;47.780;9.606;2023-05-09T12:07:41;8.02;;;2.67;;
19929;SDS011;10127;47.780;9.606;2023-05-09T12:12:47;4.68;;;1.85;;
19929;SDS011;10127;47.780;9.606;2023-05-09T12:15:14;4.88;;;1.80;;
19929;SDS011;10127;47.780;9.606;2023-05-09T12:17:44;3.45;;;2.35;;
19929;SDS011;10127;47.780;9.606;2023-05-09T12:20:17;8.43;;;2.35;;
19929;SDS011;10127;47.780;9.606;2023-05-09T12:22:42;3.78;;;2.17;;
19929;SDS011;10127;47.780;9.606;2023-05-09T12:25:08;9.25;;;2.65;;
19929;SDS011;10127;47.780;9.606;2023-05-09T12:27:36;6.97;;;2.28;;
19929;SDS011;10127;47.780;9.606;2023-05-09T12:30:03;8.80;;;4.60;;
19929;SDS011;10127;47.780;9.606;2023-05-09T12:32:34;11.10;;;5.68;;
19929;SDS011;10127;47.780;9.606;2023-05-09T12:35:01;11.15;;;7.32;;
19929;SDS011;10127;47.780;9.606;2023-05-09T12:37:28;6.20;;;3.88;;
19929;SDS011;10127;47.780;9.606;2023-05-09T12:40:00;5.00;;;2.88;;
19929;SDS011;10127;47.780;9.606;2023-05-09T12:42:31;4.15;;;3.17;;
19929;SDS011;10127;47.780;9.606;2023-05-09T12:44:58;5.13;;;2.95;;
19929;SDS011;10127;47.780;9.606;2023-05-09T12:47:25;7.57;;;2.83;;
19929;SDS011;10127;47.780;9.606;2023-05-09T12:49:55;6.18;;;2.35;;
19929;SDS011;10127;47.780;9.606;2023-05-09T12:52:32;3.45;;;1.98;;
19929;SDS011;10127;47.780;9.606;2023-05-09T12:55:03;4.18;;;2.42;;
19929;SDS011;10127;47.780;9.606;2023-05-09T12:57:37;6.70;;;4.00;;
19929;SDS011;10127;47.780;9.606;2023-05-09T13:00:04;3.50;;;2.08;;
19929;SDS011;10127;47.780;9.606;2023-05-09T13:02:33;2.20;;;1.48;;
19929;SDS011;10127;47.780;9.606;2023-05-09T13:05:04;3.65;;;1.60;;
19929;SDS011;10127;47.780;9.606;2023-05-09T13:07:37;4.22;;;1.75;;
19929;SDS011;10127;47.780;9.606;2023-05-09T13:10:08;1.70;;;1.27;;
19929;SDS011;10127;47.780;9.606;2023-05-09T13:12:38;4.95;;;1.75;;
19929;SDS011;10127;47.780;9.606;2023-05-09T13:15:08;10.52;;;2.20;;
19929;SDS011;10127;47.780;9.606;2023-05-09T13:17:35;5.75;;;3.03;;
19929;SDS011;10127;47.780;9.606;2023-05-09T13:20:01;2.00;;;1.75;;
19929;SDS011;10127;47.780;9.606;2023-05-09T13:22:28;7.35;;;5.50;;
19929;SDS011;10127;47.780;9.606;2023-05-09T13:24:54;19.73;;;14.30;;
19929;SDS011;10127;47.780;9.606;2023-05-09T13:27:20;2.45;;;1.50;;
19929;SDS011;10127;47.780;9.606;2023-05-09T13:29:46;2.30;;;1.45;;
19929;SDS011;10127;47.780;9.606;2023-05-09T13:32:11;1.70;;;1.30;;
19929;SDS011;10127;47.780;9.606;2023-05-09T13:34:37;2.55;;;1.50;;
19929;SDS011;10127;47.780;9.606;2023-05-09T13:37:02;4.85;;;1.55;;
19929;SDS011;10127;47.780;9.606;2023-05-09T13:39:28;1.88;;;1.40;;
19929;SDS011;10127;47.780;9.606;2023-05-09T13:41:54;2.83;;;1.20;;
19929;SDS011;10127;47.780;9.606;2023-05-09T13:44:20;2.22;;;1.60;;
19929;SDS011;10127;47.780;9.606;2023-05-09T13:46:47;1.58;;;1.35;;
19929;SDS011;10127;47.780;9.606;2023-05-09T13:49:13;2.13;;;1.35;;
19929;SDS011;10127;47.780;9.606;2023-05-09T13:51:39;4.20;;;1.88;;
19929;SDS011;10127;47.780;9.606;2023-05-09T13:54:05;2.50;;;1.35;;
19929;SDS011;10127;47.780;9.606;2023-05-09T13:56:36;5.03;;;1.65;;
19929;SDS011;10127;47.780;9.606;2023-05-09T13:59:06;4.57;;;1.70;;
19929;SDS011;10127;47.780;9.606;2023-05-09T14:01:31;6.30;;;1.90;;
19929;SDS011;10127;47.780;9.606;2023-05-09T14:03:57;4.20;;;1.75;;
19929;SDS011;10127;47.780;9.606;2023-05-09T14:06:22;4.03;;;1.58;;
19929;SDS011;10127;47.780;9.606;2023-05-09T14:08:48;3.38;;;1.42;;
19929;SDS011;10127;47.780;9.606;2023-05-09T14:11:13;2.40;;;1.30;;
19929;SDS011;10127;47.780;9.606;2023-05-09T14:13:39;1.15;;;1.05;;
19929;SDS011;10127;47.780;9.606;2023-05-09T14:16:05;4.78;;;1.75;;
19929;SDS011;10127;47.780;9.606;2023-05-09T14:18:31;3.25;;;1.30;;
19929;SDS011;10127;47.780;9.606;2023-05-09T14:20:56;2.35;;;1.10;;
19929;SDS011;10127;47.780;9.606;2023-05-09T14:23:22;3.50;;;1.42;;
19929;SDS011;10127;47.780;9.606;2023-05-09T14:25:47;1.38;;;1.00;;
19929;SDS011;10127;47.780;9.606;2023-05-09T14:28:13;3.08;;;1.10;;
19929;SDS011;10127;47.780;9.606;2023-05-09T14:30:39;13.05;;;1.85;;
19929;SDS011;10127;47.780;9.606;2023-05-09T14:33:04;1.17;;;1.00;;
19929;SDS011;10127;47.780;9.606;2023-05-09T14:35:31;2.55;;;1.10;;
19929;SDS011;10127;47.780;9.606;2023-05-09T14:37:58;2.03;;;1.27;;
19929;SDS011;10127;47.780;9.606;2023-05-09T14:40:24;1.63;;;1.23;;
19929;SDS011;10127;47.780;9.606;2023-05-09T14:42:50;1.63;;;1.05;;
19929;SDS011;10127;47.780;9.606;2023-05-09T14:45:16;2.85;;;1.40;;
19929;SDS011;10127;47.780;9.606;2023-05-09T14:47:41;2.20;;;1.17;;
19929;SDS011;10127;47.780;9.606;2023-05-09T14:50:07;1.40;;;0.80;;
19929;SDS011;10127;47.780;9.606;2023-05-09T14:52:35;2.17;;;1.23;;
19929;SDS011;10127;47.780;9.606;2023-05-09T14:55:01;2.22;;;1.17;;
19929;SDS011;10127;47.780;9.606;2023-05-09T14:57:27;3.05;;;1.08;;
19929;SDS011;10127;47.780;9.606;2023-05-09T14:59:53;4.05;;;1.15;;
19929;SDS011;10127;47.780;9.606;2023-05-09T15:02:18;3.33;;;1.20;;
19929;SDS011;10127;47.780;9.606;2023-05-09T15:04:44;2.05;;;1.20;;
19929;SDS011;10127;47.780;9.606;2023-05-09T15:07:09;1.35;;;1.17;;
19929;SDS011;10127;47.780;9.606;2023-05-09T15:09:35;5.03;;;1.20;;
19929;SDS011;10127;47.780;9.606;2023-05-09T15:12:02;1.73;;;1.05;;
19929;SDS011;10127;47.780;9.606;2023-05-09T15:14:27;2.30;;;1.02;;
19929;SDS011;10127;47.780;9.606;2023-05-09T15:16:53;1.10;;;1.00;;
19929;SDS011;10127;47.780;9.606;2023-05-09T15:19:20;1.45;;;1.08;;
19929;SDS011;10127;47.780;9.606;2023-05-09T15:21:47;1.73;;;1.33;;
19929;SDS011;10127;47.780;9.606;2023-05-09T15:24:12;3.08;;;1.17;;
19929;SDS011;10127;47.780;9.606;2023-05-09T15:26:38;2.30;;;1.08;;